Time;durP1;ratioP1;P1;durP2;ratioP2;P2;SDS_P1;SDS_P2;PMS_P1;PMS_P2;Temp;Humidity;BMP_temperature;BMP_pressure;BME280_temperature;BME280_humidity;BME280_pressure;Samples;Min_cycle;Max_cycle;Signal;HPM_P1;HPM_P2
2023/10/15 00:01:11;;;;;;;3.83;1.17;;;5.90;99.90;;;;;;7300183;32;20127;-55
2023/10/15 00:05:19;;;;;;;5.20;1.33;;;5.90;99.90;;;;;;7280957;32;20221;-56
2023/10/15 00:09:21;;;;;;;4.15;1.30;;;5.90;99.90;;;;;;7299181;32;20272;-57
2023/10/15 00:13:23;;;;;;;4.37;1.10;;;5.90;99.90;;;;;;7297441;32;20317;-56
2023/10/15 00:17:27;;;;;;;5.18;1.17;;;5.90;99.90;;;;;;7298833;32;20111;-55
2023/10/15 00:21:29;;;;;;;5.70;1.40;;;5.80;99.90;;;;;;7300636;32;20132;-56
2023/10/15 00:25:41;;;;;;;4.78;1.23;;;5.80;99.90;;;;;;7299308;32;23034;-55
2023/10/15 00:29:44;;;;;;;4.28;1.05;;;5.70;99.90;;;;;;7297457;32;20431;-56
2023/10/15 00:33:46;;;;;;;5.30;1.20;;;5.80;99.90;;;;;;7297970;32;20135;-56
2023/10/15 00:37:54;;;;;;;6.93;1.10;;;5.70;99.90;;;;;;7297539;32;20544;-56
2023/10/15 00:41:57;;;;;;;5.82;1.20;;;5.70;99.90;;;;;;7300020;32;20226;-57
2023/10/15 00:46:00;;;;;;;6.35;1.15;;;5.60;99.90;;;;;;7297089;32;20282;-55
2023/10/15 00:50:08;;;;;;;5.20;1.20;;;5.60;99.90;;;;;;7294147;32;20111;-55
2023/10/15 00:54:12;;;;;;;;;;;5.60;99.90;;;;;;7301462;32;20249;-56
2023/10/15 00:58:21;;;;;;;4.18;1.08;;;5.50;99.90;;;;;;7295484;32;20106;-56
2023/10/15 01:02:26;;;;;;;5.75;1.37;;;5.50;99.90;;;;;;7298029;32;20221;-55
2023/10/15 01:10:40;;;;;;;4.40;1.30;;;5.50;99.90;;;;;;7297830;32;20108;-56
2023/10/15 01:14:44;;;;;;;3.87;1.10;;;5.50;99.90;;;;;;7297021;32;20138;-56
2023/10/15 01:18:57;;;;;;;4.85;1.17;;;5.50;99.90;;;;;;7298097;32;20198;-56
2023/10/15 01:22:59;;;;;;;5.90;1.10;;;5.50;99.90;;;;;;7296866;32;20591;-56
2023/10/15 01:31:07;;;;;;;4.75;1.08;;;5.40;99.90;;;;;;7299544;32;20254;-56
2023/10/15 01:35:10;;;;;;;5.62;1.00;;;5.40;99.90;;;;;;7304302;32;20163;-55
2023/10/15 01:39:12;;;;;;;5.65;1.37;;;5.40;99.90;;;;;;7300728;32;20107;-57
2023/10/15 01:43:14;;;;;;;5.80;1.35;;;5.50;99.90;;;;;;7303327;32;20206;-57
2023/10/15 01:47:18;;;;;;;4.12;1.17;;;5.60;99.90;;;;;;7303951;32;20226;-55
2023/10/15 01:51:20;;;;;;;5.15;1.37;;;5.70;99.90;;;;;;7305266;32;20483;-55
2023/10/15 01:55:28;;;;;;;5.15;1.40;;;5.80;99.90;;;;;;7304104;32;20112;-55
2023/10/15 01:59:41;;;;;;;5.97;1.98;;;6.00;99.90;;;;;;7301489;32;20116;-56
2023/10/15 02:03:43;;;;;;;4.22;1.55;;;6.20;99.90;;;;;;7304737;32;20119;-56
2023/10/15 02:07:44;;;;;;;6.20;1.80;;;6.40;99.90;;;;;;7301648;32;20108;-56
2023/10/15 02:11:54;;;;;;;7.50;3.22;;;6.50;99.90;;;;;;7297925;32;20120;-55
2023/10/15 02:15:55;;;;;;;7.95;2.87;;;6.70;99.90;;;;;;7297836;32;20538;-55
2023/10/15 02:19:58;;;;;;;6.97;2.95;;;6.90;99.90;;;;;;7302127;32;20138;-55
2023/10/15 02:24:09;;;;;;;9.48;3.08;;;7.00;99.90;;;;;;7302330;32;20296;-56
2023/10/15 02:28:13;;;;;;;10.93;3.15;;;7.10;99.90;;;;;;7300646;32;20258;-55
2023/10/15 02:32:21;;;;;;;6.62;2.97;;;7.20;99.90;;;;;;7296695;32;20188;-56
2023/10/15 02:36:26;;;;;;;6.90;3.35;;;7.30;99.90;;;;;;7301556;32;20173;-56
2023/10/15 02:40:36;;;;;;;9.60;3.60;;;7.40;99.90;;;;;;7300209;32;20230;-55
2023/10/15 02:44:38;;;;;;;10.68;3.80;;;7.40;99.90;;;;;;7300838;32;20418;-55
2023/10/15 02:48:41;;;;;;;11.12;3.75;;;7.50;99.90;;;;;;7302429;32;20136;-55
2023/10/15 02:52:43;;;;;;;10.63;4.90;;;7.50;99.90;;;;;;7301165;32;20271;-56
2023/10/15 02:56:50;;;;;;;6.80;4.28;;;7.60;99.90;;;;;;7293738;32;20521;-55
2023/10/15 03:00:53;;;;;;;10.02;4.95;;;7.70;99.90;;;;;;7295975;32;20251;-55
2023/10/15 03:04:55;;;;;;;11.27;4.62;;;7.70;99.90;;;;;;7299631;32;20191;-57
2023/10/15 03:08:59;;;;;;;9.48;4.32;;;7.80;99.90;;;;;;7299334;32;20162;-55
2023/10/15 03:13:01;;;;;;;10.38;4.43;;;7.90;99.90;;;;;;7302823;32;20167;-56
2023/10/15 03:17:04;;;;;;;12.45;4.35;;;7.90;99.90;;;;;;7302058;32;20819;-56
2023/10/15 03:21:10;;;;;;;6.55;3.95;;;7.90;99.90;;;;;;7302643;32;20164;-55
2023/10/15 03:25:16;;;;;;;8.18;4.53;;;8.00;99.90;;;;;;7298557;32;20210;-55
2023/10/15 03:29:21;;;;;;;7.00;3.93;;;7.90;99.90;;;;;;7299913;32;20119;-55
2023/10/15 03:33:23;;;;;;;12.15;5.05;;;8.00;99.90;;;;;;7302596;32;20125;-56
2023/10/15 03:37:27;;;;;;;5.37;4.05;;;8.10;99.90;;;;;;7299393;32;20301;-57
2023/10/15 03:41:29;;;;;;;7.57;4.03;;;8.20;99.90;;;;;;7298334;32;20217;-55
2023/10/15 03:45:54;;;;;;;13.25;4.82;;;8.10;99.90;;;;;;7298876;32;20122;-56
2023/10/15 03:49:56;;;;;;;8.02;4.43;;;8.10;99.90;;;;;;7299344;32;20127;-57
2023/10/15 03:54:06;;;;;;;8.90;4.15;;;8.10;99.90;;;;;;7298573;32;20538;-55
2023/10/15 03:58:13;;;;;;;10.38;4.15;;;8.10;99.90;;;;;;7301151;32;20157;-56
2023/10/15 04:02:22;;;;;;;;;;;8.10;99.90;;;;;;7300798;32;20916;-56
2023/10/15 04:06:25;;;;;;;9.65;4.22;;;8.00;99.90;;;;;;7298104;32;20109;-56
2023/10/15 04:10:33;;;;;;;9.02;4.15;;;8.00;99.90;;;;;;7297793;32;20130;-56
2023/10/15 04:14:35;;;;;;;9.13;4.35;;;8.00;99.90;;;;;;7299420;32;20233;-56
2023/10/15 04:18:40;;;;;;;11.02;4.10;;;7.90;99.90;;;;;;7301734;32;20112;-56
2023/10/15 04:22:46;;;;;;;8.77;4.32;;;8.00;99.90;;;;;;7300275;32;20151;-56
2023/10/15 04:26:50;;;;;;;9.45;4.03;;;8.00;99.90;;;;;;7301051;32;20132;-57
2023/10/15 04:30:53;;;;;;;11.07;4.60;;;8.00;99.90;;;;;;7294329;32;20222;-55
2023/10/15 04:35:01;;;;;;;6.57;4.15;;;8.00;99.90;;;;;;7300314;32;20573;-56
2023/10/15 04:39:11;;;;;;;7.62;2.95;;;8.00;99.90;;;;;;7300043;32;20104;-57
2023/10/15 04:43:13;;;;;;;6.32;3.20;;;7.60;99.90;;;;;;7299344;32;20827;-58
2023/10/15 04:47:28;;;;;;;6.75;3.40;;;7.40;99.90;;;;;;7297720;32;20278;-57
2023/10/15 04:51:42;;;;;;;5.20;2.75;;;7.40;99.90;;;;;;7297508;32;20161;-55
2023/10/15 04:55:44;;;;;;;5.93;2.45;;;7.30;99.90;;;;;;7291903;32;20099;-57
2023/10/15 04:59:46;;;;;;;3.05;2.00;;;7.30;99.90;;;;;;7295120;32;20293;-56
2023/10/15 05:03:47;;;;;;;6.18;2.37;;;7.20;99.90;;;;;;7300491;32;20505;-56
2023/10/15 05:07:49;;;;;;;6.65;1.83;;;7.20;99.90;;;;;;7300667;32;20119;-55
2023/10/15 05:11:52;;;;;;;4.10;1.60;;;7.20;99.90;;;;;;7294993;32;20202;-55
2023/10/15 05:15:56;;;;;;;4.05;1.27;;;7.20;99.90;;;;;;7298528;32;20131;-55
2023/10/15 05:19:58;;;;;;;4.05;1.17;;;7.10;99.90;;;;;;7295236;32;20284;-54
2023/10/15 05:24:02;;;;;;;5.00;1.00;;;7.10;99.90;;;;;;7301291;32;20118;-57
2023/10/15 05:28:04;;;;;;;4.35;1.05;;;7.10;99.90;;;;;;7295961;32;20157;-55
2023/10/15 05:32:08;;;;;;;4.00;0.88;;;7.10;99.90;;;;;;7297442;32;20533;-56
2023/10/15 05:36:10;;;;;;;2.70;0.80;;;7.10;99.90;;;;;;7292714;32;20127;-56
2023/10/15 05:40:12;;;;;;;4.22;1.10;;;7.10;99.90;;;;;;7294744;32;21934;-55
2023/10/15 05:44:14;;;;;;;1.27;0.85;;;7.10;99.90;;;;;;7302635;32;20134;-56
2023/10/15 05:48:19;;;;;;;1.77;0.65;;;7.00;99.90;;;;;;7296799;32;20261;-55
2023/10/15 05:52:21;;;;;;;0.85;0.70;;;7.10;99.90;;;;;;7298988;32;20115;-55
2023/10/15 05:56:22;;;;;;;2.67;0.82;;;7.10;99.90;;;;;;7303434;32;20179;-55
2023/10/15 06:00:26;;;;;;;1.77;0.90;;;7.20;99.90;;;;;;7295931;32;20417;-57
2023/10/15 06:04:28;;;;;;;2.15;0.88;;;7.20;99.90;;;;;;7295427;32;20103;-55
2023/10/15 06:08:30;;;;;;;2.28;0.90;;;7.20;99.90;;;;;;7298091;32;20176;-56
2023/10/15 06:12:31;;;;;;;2.47;0.90;;;7.20;99.90;;;;;;7299880;32;20168;-56
2023/10/15 06:16:33;;;;;;;3.17;0.90;;;7.20;99.90;;;;;;7293799;32;20207;-55
2023/10/15 06:20:35;;;;;;;1.95;0.82;;;7.20;99.90;;;;;;7292795;32;20190;-56
2023/10/15 06:24:37;;;;;;;2.15;0.85;;;7.20;99.90;;;;;;7300022;32;20200;-55
2023/10/15 06:28:40;;;;;;;3.40;0.60;;;7.20;99.90;;;;;;7301434;32;20104;-56
2023/10/15 06:32:49;;;;;;;2.25;0.55;;;7.20;99.90;;;;;;7297558;32;20533;-56
2023/10/15 06:36:51;;;;;;;1.27;0.70;;;7.30;99.90;;;;;;7294710;32;20128;-56
2023/10/15 06:40:52;;;;;;;2.83;0.90;;;7.30;99.90;;;;;;7301092;32;20136;-56
2023/10/15 06:44:54;;;;;;;1.55;0.85;;;7.30;99.90;;;;;;7295177;32;20557;-57
2023/10/15 06:48:56;;;;;;;2.35;0.90;;;7.30;99.90;;;;;;7290718;32;20215;-56
2023/10/15 06:53:01;;;;;;;2.62;0.93;;;7.40;99.90;;;;;;7298825;32;20257;-56
2023/10/15 06:57:04;;;;;;;3.60;1.58;;;7.40;99.90;;;;;;7297960;32;20234;-57
2023/10/15 07:01:07;;;;;;;4.75;1.48;;;7.40;99.90;;;;;;7300536;32;20237;-57
2023/10/15 07:05:09;;;;;;;1.65;1.10;;;7.50;99.90;;;;;;7295098;32;20266;-57
2023/10/15 07:09:13;;;;;;;4.25;1.52;;;7.50;99.90;;;;;;7297991;32;20239;-56
2023/10/15 07:13:17;;;;;;;3.12;1.27;;;7.50;99.90;;;;;;7294903;32;20217;-56
2023/10/15 07:17:18;;;;;;;4.12;1.30;;;7.50;99.90;;;;;;7293695;32;20518;-56
2023/10/15 07:21:20;;;;;;;2.53;1.30;;;7.60;99.90;;;;;;7297903;32;20119;-56
2023/10/15 07:25:26;;;;;;;1.48;1.10;;;7.70;99.90;;;;;;7293515;32;20179;-55
2023/10/15 07:29:29;;;;;;;7.53;1.97;;;7.90;99.90;;;;;;7297944;32;20249;-57
2023/10/15 07:33:30;;;;;;;0.80;0.62;;;7.90;99.90;;;;;;7291422;32;20229;-56
2023/10/15 07:37:37;;;;;;;1.77;0.80;;;8.00;99.90;;;;;;7292409;32;20105;-56
2023/10/15 07:41:39;;;;;;;2.70;0.80;;;8.20;99.90;;;;;;7299690;32;20517;-57
2023/10/15 07:45:40;;;;;;;2.78;1.23;;;8.30;99.90;;;;;;7295608;32;20138;-56
2023/10/15 07:49:42;;;;;;;2.15;0.73;;;8.40;99.90;;;;;;7298028;32;20230;-56
2023/10/15 07:53:44;;;;;;;1.85;0.77;;;8.40;99.90;;;;;;7297278;32;20529;-57
2023/10/15 07:57:46;;;;;;;2.15;0.60;;;8.10;99.90;;;;;;7299108;32;20235;-56
2023/10/15 08:01:48;;;;;;;4.78;0.90;;;8.10;99.90;;;;;;7298259;32;20123;-57
2023/10/15 08:05:50;;;;;;;4.18;0.80;;;7.90;99.90;;;;;;7297426;32;20112;-57
2023/10/15 08:09:52;;;;;;;1.73;0.80;;;8.20;99.90;;;;;;7295018;32;20119;-57
2023/10/15 08:13:54;;;;;;;4.93;0.70;;;8.30;99.90;;;;;;7290517;32;20111;-58
2023/10/15 08:17:58;;;;;;;2.58;0.62;;;8.40;99.90;;;;;;7297084;32;20183;-63
2023/10/15 08:22:00;;;;;;;1.70;0.57;;;8.40;99.90;;;;;;7293999;32;20104;-56
2023/10/15 08:26:02;;;;;;;3.70;0.80;;;8.60;99.90;;;;;;7296659;32;20541;-57
2023/10/15 08:30:04;;;;;;;2.22;0.65;;;8.50;99.90;;;;;;7293293;32;20103;-58
2023/10/15 08:34:07;;;;;;;1.65;0.60;;;8.50;99.90;;;;;;7298482;32;20249;-56
2023/10/15 08:38:09;;;;;;;2.12;0.52;;;8.50;99.90;;;;;;7302612;32;20809;-55
2023/10/15 08:42:22;;;;;;;1.33;0.50;;;8.40;99.90;;;;;;7302492;32;20233;-55
2023/10/15 08:46:24;;;;;;;0.93;0.60;;;8.50;99.90;;;;;;7304547;32;20171;-59
2023/10/15 08:50:29;;;;;;;3.30;0.80;;;8.50;99.90;;;;;;7305013;32;20185;-56
2023/10/15 08:54:32;;;;;;;1.77;0.73;;;8.70;99.90;;;;;;7298566;32;20135;-55
2023/10/15 08:58:35;;;;;;;3.42;0.60;;;8.70;99.90;;;;;;7302606;32;20104;-56
2023/10/15 09:02:37;;;;;;;2.37;0.68;;;8.90;99.90;;;;;;7300915;32;20226;-58
2023/10/15 09:06:39;;;;;;;1.08;0.68;;;9.10;99.90;;;;;;7302941;32;20225;-56
2023/10/15 09:10:41;;;;;;;2.22;0.60;;;9.10;99.90;;;;;;7296314;32;20172;-55
2023/10/15 09:14:46;;;;;;;3.12;0.70;;;8.90;99.90;;;;;;7301651;32;20283;-57
2023/10/15 09:18:49;;;;;;;3.25;0.85;;;8.80;99.90;;;;;;7301716;32;20171;-56
2023/10/15 09:22:52;;;;;;;2.03;0.90;;;8.80;99.90;;;;;;7300738;32;20139;-56
2023/10/15 09:26:54;;;;;;;3.10;0.85;;;8.80;99.90;;;;;;7299195;32;20130;-56
2023/10/15 09:31:06;;;;;;;1.73;0.75;;;8.90;99.90;;;;;;7300438;32;20270;-56
2023/10/15 09:35:08;;;;;;;1.65;0.80;;;9.00;99.90;;;;;;7295049;32;20232;-56
2023/10/15 09:39:13;;;;;;;4.72;0.80;;;9.20;99.90;;;;;;7296876;32;20108;-57
2023/10/15 09:43:15;;;;;;;2.95;1.00;;;9.30;99.90;;;;;;7297503;32;20116;-55
2023/10/15 09:47:17;;;;;;;5.47;1.10;;;9.50;99.90;;;;;;7292566;32;20792;-57
2023/10/15 09:51:21;;;;;;;4.35;0.93;;;9.40;99.90;;;;;;7298289;32;20108;-55
2023/10/15 09:55:27;;;;;;;3.70;1.10;;;9.40;99.90;;;;;;7297327;32;20937;-57
2023/10/15 09:59:30;;;;;;;2.42;1.23;;;9.40;99.90;;;;;;7300045;32;20119;-56
2023/10/15 10:03:52;;;;;;;3.17;1.40;;;9.20;99.90;;;;;;7299547;32;20203;-56
2023/10/15 10:08:05;;;;;;;4.12;1.42;;;9.20;99.90;;;;;;7294548;32;20242;-57
2023/10/15 10:12:44;;;;;;;3.05;1.10;;;9.10;99.90;;;;;;7294494;32;20210;-55
2023/10/15 10:16:46;;;;;;;3.33;1.00;;;9.20;99.90;;;;;;7295921;32;20116;-55
2023/10/15 10:20:48;;;;;;;4.40;0.77;;;9.30;99.90;;;;;;7296797;32;20530;-56
2023/10/15 10:24:50;;;;;;;4.47;1.10;;;9.40;99.90;;;;;;7290868;32;20503;-56
2023/10/15 10:28:54;;;;;;;3.20;1.05;;;9.50;99.90;;;;;;7288785;32;20112;-57
2023/10/15 10:32:57;;;;;;;3.28;0.70;;;9.60;99.90;;;;;;7292073;32;20413;-58
2023/10/15 10:36:59;;;;;;;2.92;0.57;;;9.80;99.90;;;;;;7292546;32;20179;-56
2023/10/15 10:41:07;;;;;;;1.95;0.70;;;9.70;99.90;;;;;;7294694;32;20176;-57
2023/10/15 10:45:55;;;;;;;3.42;0.82;;;9.60;99.90;;;;;;7289673;32;20652;-57
2023/10/15 10:50:04;;;;;;;1.60;0.80;;;9.80;99.90;;;;;;7284426;32;20325;-55
2023/10/15 10:54:05;;;;;;;1.75;0.73;;;9.80;99.90;;;;;;7297706;32;20145;-56
2023/10/15 10:58:21;;;;;;;3.87;1.50;;;10.00;99.90;;;;;;7296362;32;20136;-57
2023/10/15 11:02:23;;;;;;;4.40;1.73;;;10.00;99.90;;;;;;7291642;32;20119;-57
2023/10/15 11:06:26;;;;;;;5.97;1.27;;;10.20;99.90;;;;;;7294593;32;20178;-58
2023/10/15 11:10:32;;;;;;;7.12;3.90;;;10.10;99.90;;;;;;7295011;32;20615;-57
2023/10/15 11:14:36;;;;;;;4.68;3.25;;;10.40;99.90;;;;;;7296829;32;20243;-56
2023/10/15 11:18:39;;;;;;;10.88;3.87;;;10.00;99.90;;;;;;7291791;32;20153;-56
2023/10/15 11:22:41;;;;;;;8.98;3.20;;;10.00;99.90;;;;;;7295413;32;20275;-56
2023/10/15 11:26:44;;;;;;;2.90;1.60;;;9.90;99.90;;;;;;7293620;32;20510;-57
2023/10/15 11:30:46;;;;;;;3.47;1.67;;;9.70;99.90;;;;;;7290793;32;21148;-58
2023/10/15 11:34:48;;;;;;;4.22;1.80;;;9.80;99.90;;;;;;7293234;32;20100;-57
2023/10/15 11:38:51;;;;;;;6.10;1.80;;;9.90;99.90;;;;;;7294163;32;20996;-56
2023/10/15 11:42:55;;;;;;;4.10;1.33;;;10.00;99.90;;;;;;7293570;32;20800;-57
2023/10/15 11:46:57;;;;;;;4.07;1.37;;;10.30;99.90;;;;;;7292745;32;20305;-56
2023/10/15 11:50:59;;;;;;;3.00;1.20;;;10.50;99.90;;;;;;7294174;32;20310;-56
2023/10/15 11:55:02;;;;;;;2.55;0.30;;;10.70;99.90;;;;;;7290223;32;20208;-56
2023/10/15 11:59:04;;;;;;;0.93;0.43;;;10.90;99.90;;;;;;7295081;32;20108;-57
2023/10/15 12:03:06;;;;;;;3.67;0.60;;;10.90;99.90;;;;;;7297763;32;20122;-57
2023/10/15 12:07:28;;;;;;;0.80;0.30;;;10.80;99.90;;;;;;7292558;32;20222;-56
2023/10/15 12:11:29;;;;;;;2.40;0.65;;;10.90;99.90;;;;;;7290991;32;20127;-58
2023/10/15 12:15:34;;;;;;;2.95;0.57;;;11.00;99.90;;;;;;7293684;32;20124;-56
2023/10/15 12:19:36;;;;;;;2.75;0.50;;;11.30;99.90;;;;;;7294158;32;20242;-58
2023/10/15 12:23:37;;;;;;;3.85;0.60;;;11.20;99.90;;;;;;7289766;32;20343;-57
2023/10/15 12:27:39;;;;;;;1.60;0.47;;;11.10;99.90;;;;;;7293507;32;20103;-56
2023/10/15 12:31:43;;;;;;;2.58;0.60;;;11.00;99.90;;;;;;7288155;32;20273;-56
2023/10/15 12:35:47;;;;;;;2.45;0.50;;;11.10;99.90;;;;;;7291435;32;20108;-56
2023/10/15 12:39:51;;;;;;;4.10;0.70;;;11.00;99.90;;;;;;7295740;32;20175;-56
2023/10/15 12:43:58;;;;;;;2.90;0.60;;;10.80;99.90;;;;;;7291346;32;20170;-56
2023/10/15 12:48:01;;;;;;;;;;;10.50;99.90;;;;;;7294876;32;20123;-56
2023/10/15 12:52:04;;;;;;;2.80;0.65;;;10.80;99.90;;;;;;7293518;32;20049;-56
2023/10/15 12:56:06;;;;;;;2.87;0.40;;;11.00;99.90;;;;;;7291491;32;20116;-57
2023/10/15 13:00:26;;;;;;;2.70;0.68;;;11.20;99.90;;;;;;7293969;32;20198;-56
2023/10/15 13:04:27;;;;;;;3.00;0.60;;;11.30;99.90;;;;;;7295783;32;20198;-56
2023/10/15 13:08:29;;;;;;;2.65;0.47;;;11.40;99.90;;;;;;7295590;32;20096;-55
2023/10/15 13:12:32;;;;;;;2.72;0.50;;;11.50;99.90;;;;;;7288500;32;20249;-56
2023/10/15 13:16:34;;;;;;;2.25;0.73;;;11.60;99.90;;;;;;7292647;32;20253;-56
2023/10/15 13:20:36;;;;;;;3.55;0.52;;;11.50;99.90;;;;;;7296259;32;20882;-56
2023/10/15 13:24:38;;;;;;;2.80;0.30;;;11.60;99.90;;;;;;7296792;32;20586;-57
2023/10/15 13:28:40;;;;;;;4.32;0.50;;;11.60;99.90;;;;;;7294710;32;20198;-56
2023/10/15 13:32:47;;;;;;;5.28;1.35;;;11.70;99.90;;;;;;7295821;32;20107;-55
2023/10/15 13:36:49;;;;;;;;;;;11.90;99.90;;;;;;7297630;32;20125;-56
2023/10/15 13:40:50;;;;;;;1.83;0.50;;;12.00;99.90;;;;;;7298924;32;20043;-58
2023/10/15 13:44:52;;;;;;;2.10;0.37;;;12.00;99.90;;;;;;7295931;32;20187;-58
2023/10/15 13:48:54;;;;;;;3.83;0.80;;;11.90;99.90;;;;;;7297018;32;20803;-59
2023/10/15 13:52:56;;;;;;;3.83;0.52;;;12.00;99.90;;;;;;7296368;32;20195;-60
2023/10/15 13:56:58;;;;;;;1.77;0.50;;;11.80;99.90;;;;;;7300821;32;20095;-58
2023/10/15 14:00:59;;;;;;;0.82;0.40;;;11.90;99.90;;;;;;7297156;32;20278;-57
2023/10/15 14:05:05;;;;;;;3.50;0.90;;;11.90;99.90;;;;;;7299879;32;20290;-57
2023/10/15 14:09:08;;;;;;;3.00;0.50;;;11.60;99.90;;;;;;7301895;32;20130;-57
2023/10/15 14:13:09;;;;;;;4.47;0.62;;;11.30;99.90;;;;;;7296213;32;20119;-58
2023/10/15 14:17:17;;;;;;;3.50;0.82;;;11.30;99.90;;;;;;7293824;32;20210;-57
2023/10/15 14:21:19;;;;;;;3.95;0.60;;;11.40;99.90;;;;;;7303362;32;20127;-58
2023/10/15 14:25:22;;;;;;;2.30;0.37;;;11.40;99.90;;;;;;7300821;32;20143;-58
2023/10/15 14:29:25;;;;;;;3.25;0.68;;;10.90;99.90;;;;;;7301980;32;20134;-58
2023/10/15 14:33:27;;;;;;;2.47;0.62;;;11.00;99.90;;;;;;7303185;32;20104;-58
2023/10/15 14:37:30;;;;;;;3.33;0.50;;;10.90;99.90;;;;;;7306423;32;20146;-58
2023/10/15 14:41:33;;;;;;;3.65;0.55;;;11.10;99.90;;;;;;7301044;32;20171;-58
2023/10/15 14:45:36;;;;;;;2.60;0.77;;;11.10;99.90;;;;;;7297873;32;20127;-58
2023/10/15 14:49:38;;;;;;;3.62;0.70;;;10.90;99.90;;;;;;7301102;32;20261;-58
2023/10/15 14:53:40;;;;;;;1.80;0.52;;;10.80;99.90;;;;;;7299991;32;20182;-58
2023/10/15 14:57:42;;;;;;;2.08;0.60;;;10.70;99.90;;;;;;7301049;32;20225;-57
2023/10/15 15:01:44;;;;;;;3.78;0.47;;;10.50;99.90;;;;;;7299298;32;20266;-58
2023/10/15 15:05:46;;;;;;;3.67;0.52;;;10.50;99.90;;;;;;7293781;32;20101;-59
2023/10/15 15:09:47;;;;;;;2.75;0.60;;;10.50;99.90;;;;;;7297548;32;20208;-57
2023/10/15 15:13:49;;;;;;;1.75;0.45;;;10.60;99.90;;;;;;7298094;32;20648;-58
2023/10/15 15:17:51;;;;;;;4.47;0.68;;;10.60;99.90;;;;;;7300377;32;20564;-57
2023/10/15 15:21:53;;;;;;;0.68;0.32;;;10.50;99.90;;;;;;7299131;32;20100;-55
2023/10/15 15:26:00;;;;;;;2.47;0.90;;;10.40;99.90;;;;;;7296095;32;20096;-57
2023/10/15 15:30:07;;;;;;;;;;;10.40;99.90;;;;;;7294736;32;20576;-55
2023/10/15 15:34:10;;;;;;;2.62;0.35;;;10.30;99.90;;;;;;7295917;32;20153;-55
2023/10/15 15:38:12;;;;;;;2.42;0.40;;;10.10;99.90;;;;;;7300143;32;20237;-55
2023/10/15 15:42:15;;;;;;;0.95;0.40;;;10.00;99.90;;;;;;7295216;32;20118;-58
2023/10/15 15:46:16;;;;;;;1.92;0.52;;;10.00;99.90;;;;;;7299246;32;20550;-57
2023/10/15 15:50:19;;;;;;;5.32;0.73;;;10.00;99.90;;;;;;7299216;32;20194;-57
2023/10/15 15:54:21;;;;;;;3.97;0.90;;;9.90;99.90;;;;;;7293542;32;20178;-57
2023/10/15 15:58:23;;;;;;;2.08;0.50;;;10.10;99.90;;;;;;7299991;32;20538;-56
2023/10/15 16:02:25;;;;;;;1.58;0.50;;;10.00;99.90;;;;;;7296557;32;20126;-57
2023/10/15 16:06:28;;;;;;;2.15;0.70;;;9.90;99.90;;;;;;7296106;32;20100;-57
2023/10/15 16:10:30;;;;;;;4.57;0.93;;;9.90;99.90;;;;;;7294359;32;20217;-56
2023/10/15 16:14:32;;;;;;;3.67;0.70;;;9.90;99.90;;;;;;7292643;32;20127;-57
2023/10/15 16:18:34;;;;;;;3.78;0.90;;;9.70;99.90;;;;;;7295341;32;20100;-55
2023/10/15 16:22:36;;;;;;;2.03;0.75;;;9.80;99.90;;;;;;7298265;32;20161;-56
2023/10/15 16:26:37;;;;;;;2.62;0.70;;;9.70;99.90;;;;;;7295869;32;20218;-56
2023/10/15 16:30:40;;;;;;;2.72;0.68;;;9.60;99.90;;;;;;7298344;32;21464;-55
2023/10/15 16:34:41;;;;;;;5.07;0.70;;;9.40;99.90;;;;;;7300800;32;20126;-57
2023/10/15 16:38:43;;;;;;;3.90;0.70;;;9.30;99.90;;;;;;7297569;32;20233;-57
2023/10/15 16:42:45;;;;;;;3.58;1.40;;;9.10;99.90;;;;;;7289894;32;20181;-56
2023/10/15 16:46:46;;;;;;;3.42;1.20;;;8.90;99.90;;;;;;7295228;32;20103;-57
2023/10/15 16:50:48;;;;;;;4.15;1.30;;;8.70;99.90;;;;;;7293530;32;20556;-56
2023/10/15 16:54:51;;;;;;;2.60;1.10;;;8.50;99.90;;;;;;7293117;32;20175;-56
2023/10/15 16:58:53;;;;;;;3.30;1.58;;;8.40;99.90;;;;;;7299098;32;20166;-57
2023/10/15 17:02:55;;;;;;;2.55;1.40;;;8.30;99.90;;;;;;7302357;32;20177;-56
2023/10/15 17:06:56;;;;;;;3.35;1.30;;;8.10;99.90;;;;;;7297538;32;20123;-55
2023/10/15 17:10:58;;;;;;;6.15;0.90;;;8.00;99.90;;;;;;7302235;32;20190;-56
2023/10/15 17:15:00;;;;;;;3.00;0.55;;;7.90;99.90;;;;;;7300975;32;20504;-55
2023/10/15 17:19:02;;;;;;;1.90;0.50;;;7.80;99.90;;;;;;7303084;32;20539;-57
2023/10/15 17:23:04;;;;;;;4.47;1.00;;;7.80;99.90;;;;;;7300846;32;21016;-57
2023/10/15 17:27:06;;;;;;;3.50;1.40;;;7.70;99.90;;;;;;7299221;32;20134;-56
2023/10/15 17:31:09;;;;;;;5.07;2.30;;;7.70;99.90;;;;;;7297652;32;20229;-57
2023/10/15 17:35:11;;;;;;;5.95;3.53;;;7.60;99.90;;;;;;7302717;32;20233;-57
2023/10/15 17:39:16;;;;;;;9.15;5.22;;;7.70;99.90;;;;;;7302292;32;20126;-57
2023/10/15 17:43:18;;;;;;;5.00;2.80;;;7.70;99.90;;;;;;7296740;32;20168;-56
2023/10/15 17:47:20;;;;;;;5.57;2.37;;;7.70;99.90;;;;;;7301502;32;20245;-56
2023/10/15 17:51:22;;;;;;;4.12;1.85;;;7.80;99.90;;;;;;7301772;32;20126;-55
2023/10/15 17:55:23;;;;;;;5.37;2.30;;;7.90;99.90;;;;;;7291005;32;20230;-62
2023/10/15 17:59:25;;;;;;;6.03;2.15;;;7.80;99.90;;;;;;7300507;32;20096;-61
2023/10/15 18:03:28;;;;;;;3.50;1.90;;;7.80;99.90;;;;;;7296842;32;20706;-56
2023/10/15 18:07:30;;;;;;;3.53;1.60;;;7.80;99.90;;;;;;7299357;32;20096;-57
2023/10/15 18:11:32;;;;;;;9.15;3.00;;;7.90;99.90;;;;;;7300466;32;20132;-56
2023/10/15 18:15:35;;;;;;;7.70;2.95;;;7.90;99.90;;;;;;7297089;32;20146;-56
2023/10/15 18:19:38;;;;;;;7.45;2.28;;;7.90;99.90;;;;;;7299995;32;20103;-57
2023/10/15 18:23:40;;;;;;;9.82;3.12;;;7.90;99.90;;;;;;7294227;32;20107;-57
2023/10/15 18:27:41;;;;;;;7.97;2.50;;;7.90;99.90;;;;;;7296775;32;20657;-55
2023/10/15 18:31:43;;;;;;;5.75;1.50;;;8.00;99.90;;;;;;7293776;32;20283;-57
2023/10/15 18:35:45;;;;;;;4.93;1.30;;;7.90;99.90;;;;;;7294626;32;20263;-56
2023/10/15 18:39:47;;;;;;;3.60;1.30;;;8.00;99.90;;;;;;7301293;32;20100;-56
2023/10/15 18:43:49;;;;;;;5.57;1.55;;;8.00;99.90;;;;;;7295325;32;20625;-55
2023/10/15 18:47:53;;;;;;;3.62;1.55;;;7.90;99.90;;;;;;7297547;32;20758;-57
2023/10/15 18:51:55;;;;;;;8.65;3.60;;;7.90;99.90;;;;;;7301185;32;20112;-57
2023/10/15 18:55:58;;;;;;;7.55;2.42;;;7.70;99.90;;;;;;7300837;32;20109;-55
2023/10/15 19:00:00;;;;;;;6.10;1.87;;;7.60;99.90;;;;;;7290804;32;20595;-55
2023/10/15 19:04:02;;;;;;;5.22;1.80;;;7.50;99.90;;;;;;7296977;32;20628;-55
2023/10/15 19:08:07;;;;;;;4.07;2.00;;;7.50;99.90;;;;;;7298139;32;20142;-56
2023/10/15 19:12:08;;;;;;;5.55;2.03;;;7.40;99.90;;;;;;7300409;32;20241;-56
2023/10/15 19:16:10;;;;;;;6.07;2.08;;;7.30;99.90;;;;;;7298792;32;20818;-57
2023/10/15 19:20:12;;;;;;;5.50;1.45;;;7.20;99.90;;;;;;7300709;32;20107;-57
2023/10/15 19:24:13;;;;;;;3.70;1.67;;;7.20;99.90;;;;;;7299304;32;20120;-57
2023/10/15 19:28:17;;;;;;;3.60;1.20;;;7.10;99.90;;;;;;7296680;32;20126;-55
2023/10/15 19:32:18;;;;;;;2.33;0.90;;;6.90;99.90;;;;;;7298521;32;20199;-54
2023/10/15 19:36:21;;;;;;;3.42;1.37;;;6.80;99.90;;;;;;7295243;32;20206;-56
2023/10/15 19:40:25;;;;;;;3.65;2.08;;;6.70;99.90;;;;;;7296268;32;20115;-56
2023/10/15 19:44:27;;;;;;;4.75;2.08;;;6.50;99.90;;;;;;7300834;32;20731;-55
2023/10/15 19:48:29;;;;;;;8.63;4.07;;;6.50;99.90;;;;;;7299811;32;20130;-56
2023/10/15 19:52:31;;;;;;;6.57;4.53;;;6.40;99.90;;;;;;7297870;32;20578;-57
2023/10/15 19:56:32;;;;;;;7.60;4.72;;;6.30;99.90;;;;;;7300434;32;20115;-55
2023/10/15 20:00:37;;;;;;;5.28;2.50;;;6.30;99.90;;;;;;7298050;32;20119;-58
2023/10/15 20:04:38;;;;;;;5.93;1.90;;;6.20;99.90;;;;;;7295761;32;20175;-56
2023/10/15 20:08:41;;;;;;;13.73;5.12;;;6.10;99.90;;;;;;7296741;32;20188;-56
2023/10/15 20:12:48;;;;;;;8.02;4.68;;;6.00;99.90;;;;;;7295357;32;20590;-56
2023/10/15 20:16:50;;;;;;;4.90;1.73;;;5.90;99.90;;;;;;7299009;32;20135;-57
2023/10/15 20:20:52;;;;;;;16.20;7.72;;;5.90;99.90;;;;;;7290951;32;20232;-55
2023/10/15 20:24:54;;;;;;;11.02;4.57;;;5.80;99.90;;;;;;7298371;32;20161;-57
2023/10/15 20:28:56;;;;;;;7.50;4.90;;;5.70;99.90;;;;;;7298448;32;20100;-55
2023/10/15 20:32:58;;;;;;;6.20;4.25;;;5.70;99.90;;;;;;7295125;32;20115;-55
2023/10/15 20:37:00;;;;;;;6.60;2.78;;;5.60;99.90;;;;;;7290838;32;20217;-57
2023/10/15 20:41:01;;;;;;;7.65;3.58;;;5.60;99.90;;;;;;7300162;32;20138;-55
2023/10/15 20:45:05;;;;;;;5.20;2.67;;;5.60;99.90;;;;;;7295940;32;20127;-55
2023/10/15 20:49:07;;;;;;;2.35;1.42;;;5.50;99.90;;;;;;7295519;32;20100;-55
2023/10/15 20:53:10;;;;;;;4.43;1.55;;;5.40;99.90;;;;;;7297295;32;20257;-54
2023/10/15 20:57:11;;;;;;;4.00;1.50;;;5.40;99.90;;;;;;7295274;32;20142;-55
2023/10/15 21:01:13;;;;;;;4.75;1.35;;;5.40;99.90;;;;;;7298352;32;20107;-56
2023/10/15 21:05:17;;;;;;;1.65;0.95;;;5.30;99.90;;;;;;7292952;32;20122;-56
2023/10/15 21:09:20;;;;;;;6.53;1.50;;;5.30;99.90;;;;;;7299054;32;20521;-55
2023/10/15 21:13:23;;;;;;;4.32;1.52;;;5.20;99.90;;;;;;7296964;32;20092;-58
2023/10/15 21:17:25;;;;;;;2.50;1.15;;;5.20;99.90;;;;;;7298853;32;20214;-55
2023/10/15 21:21:27;;;;;;;4.87;1.27;;;5.10;99.90;;;;;;7294879;32;20112;-55
2023/10/15 21:25:29;;;;;;;5.50;1.30;;;5.10;99.90;;;;;;7294354;32;20397;-54
2023/10/15 21:29:30;;;;;;;3.60;1.58;;;5.00;99.90;;;;;;7295928;32;20442;-56